Time;durP1;ratioP1;P1;durP2;ratioP2;P2;SDS_P1;SDS_P2;PMS_P1;PMS_P2;Temp;Humidity;BMP_temperature;BMP_pressure;BME280_temperature;BME280_humidity;BME280_pressure;Samples;Min_cycle;Max_cycle;Signal;HPM_P1;HPM_P2
2022/01/01 00:01:16;;;;;;;43.97;29.02;;;14.40;83.50;;;;;;5056918;28;20028;-74
2022/01/01 00:03:42;;;;;;;39.55;25.77;;;14.30;83.50;;;;;;5072674;28;20419;-73
2022/01/01 00:06:07;;;;;;;36.10;26.48;;;14.40;83.50;;;;;;5073490;28;20090;-73
2022/01/01 00:08:33;;;;;;;44.78;29.05;;;14.40;83.50;;;;;;5073656;28;20020;-73
2022/01/01 00:10:58;;;;;;;42.00;29.13;;;14.40;83.50;;;;;;5056445;28;20037;-73
2022/01/01 00:13:24;;;;;;;39.17;27.40;;;14.40;83.40;;;;;;5055263;28;20029;-74
2022/01/01 00:15:49;;;;;;;35.58;25.50;;;14.40;83.40;;;;;;5061381;28;20029;-74
2022/01/01 00:18:16;;;;;;;34.25;24.70;;;14.40;83.40;;;;;;5072932;28;20419;-74
2022/01/01 00:20:42;;;;;;;44.40;27.30;;;14.40;83.40;;;;;;5073090;28;20033;-74
2022/01/01 00:23:08;;;;;;;39.33;27.00;;;14.40;83.40;;;;;;5073058;28;20093;-73
2022/01/01 00:25:33;;;;;;;36.88;25.65;;;14.40;83.40;;;;;;5067727;28;20051;-74
2022/01/01 00:27:59;;;;;;;38.03;24.35;;;14.40;83.40;;;;;;5061873;28;20035;-73
2022/01/01 00:30:24;;;;;;;43.92;25.40;;;14.40;83.40;;;;;;5060854;28;20025;-73
2022/01/01 00:32:50;;;;;;;33.65;21.92;;;14.40;83.50;;;;;;5056361;28;20049;-74
2022/01/01 00:35:15;;;;;;;33.17;21.30;;;14.40;83.40;;;;;;5060918;28;20094;-74
2022/01/01 00:37:41;;;;;;;33.67;21.00;;;14.40;83.40;;;;;;5056293;28;20029;-74
2022/01/01 00:40:07;;;;;;;35.38;21.63;;;14.40;83.40;;;;;;5051980;28;20577;-74
2022/01/01 00:42:33;;;;;;;37.53;22.33;;;14.40;83.50;;;;;;5067713;28;20037;-73
2022/01/01 00:44:58;;;;;;;38.33;24.45;;;14.40;83.40;;;;;;5056762;28;20351;-74
2022/01/01 00:47:24;;;;;;;34.10;23.42;;;14.40;83.50;;;;;;5073818;28;20467;-74
2022/01/01 00:49:50;;;;;;;36.47;23.05;;;14.40;83.50;;;;;;5073413;28;20027;-74
2022/01/01 00:52:15;;;;;;;39.70;23.98;;;14.40;83.50;;;;;;5073196;28;20060;-74
2022/01/01 00:54:41;;;;;;;36.50;23.23;;;14.40;83.50;;;;;;5058103;28;20028;-74
2022/01/01 00:57:07;;;;;;;36.33;23.67;;;14.40;83.50;;;;;;5076692;28;20111;-74
2022/01/01 00:59:32;;;;;;;37.53;25.15;;;14.40;83.50;;;;;;5076758;28;20078;-74
2022/01/01 01:01:59;;;;;;;33.95;23.13;;;14.30;83.50;;;;;;5060335;28;20040;-73
2022/01/01 01:04:25;;;;;;;32.83;22.23;;;14.40;83.60;;;;;;5059755;28;20071;-73
2022/01/01 01:06:51;;;;;;;33.53;23.77;;;14.30;83.50;;;;;;5077887;28;20029;-73
2022/01/01 01:09:17;;;;;;;34.78;22.25;;;14.30;83.50;;;;;;5077514;28;20178;-74
2022/01/01 01:11:46;;;;;;;40.08;26.25;;;14.40;83.60;;;;;;5060100;28;20074;-74
2022/01/01 01:14:19;;;;;;;36.53;23.63;;;14.40;83.60;;;;;;5077184;28;20028;-74
2022/01/01 01:16:46;;;;;;;32.38;23.05;;;14.30;83.60;;;;;;5076063;28;20067;-74
2022/01/01 01:19:12;;;;;;;32.13;22.92;;;14.30;83.60;;;;;;5077368;28;20032;-74
2022/01/01 01:21:37;;;;;;;34.17;23.05;;;14.40;83.60;;;;;;5077282;28;20032;-74
2022/01/01 01:24:03;;;;;;;36.97;22.73;;;14.30;83.60;;;;;;5076596;28;20032;-74
2022/01/01 01:26:29;;;;;;;36.85;22.77;;;14.30;83.60;;;;;;5075523;28;20090;-74
2022/01/01 01:28:56;;;;;;;32.53;22.35;;;14.30;83.60;;;;;;5077154;28;20089;-73
2022/01/01 01:31:24;;;;;;;30.38;20.88;;;14.30;83.60;;;;;;5076191;28;20039;-73
2022/01/01 01:33:50;;;;;;;34.05;21.45;;;14.30;83.60;;;;;;5076673;28;20048;-73
2022/01/01 01:36:15;;;;;;;34.35;23.00;;;14.30;83.60;;;;;;5055642;28;20021;-74
2022/01/01 01:38:41;;;;;;;29.08;20.65;;;14.30;83.60;;;;;;5059056;28;20072;-74
2022/01/01 01:41:08;;;;;;;37.58;22.58;;;14.30;83.50;;;;;;5075555;28;20020;-73
2022/01/01 01:43:34;;;;;;;35.03;23.65;;;14.30;83.50;;;;;;5076416;28;20020;-74
2022/01/01 01:46:04;;;;;;;39.25;25.23;;;14.30;83.50;;;;;;5075688;28;20522;-74
2022/01/01 01:48:37;;;;;;;34.10;23.15;;;14.30;83.60;;;;;;5075798;28;20032;-73
2022/01/01 01:51:03;;;;;;;41.92;25.67;;;14.30;83.60;;;;;;5077767;28;20153;-73
2022/01/01 01:53:30;;;;;;;36.65;23.45;;;14.30;83.50;;;;;;5075966;28;20031;-74
2022/01/01 01:55:58;;;;;;;33.45;25.20;;;14.20;83.50;;;;;;5074469;28;20103;-74
2022/01/01 01:58:24;;;;;;;35.03;24.63;;;14.20;83.50;;;;;;5059109;28;20052;-73
2022/01/01 02:01:20;;;;;;;37.55;23.85;;;14.30;83.50;;;;;;5075820;28;20058;-73
2022/01/01 02:03:44;;;;;;;37.90;23.15;;;14.30;83.50;;;;;;5074968;28;20430;-73
2022/01/01 02:06:10;;;;;;;34.38;22.48;;;14.30;83.50;;;;;;5058283;28;20041;-73
2022/01/01 02:08:35;;;;;;;36.42;23.42;;;14.30;83.50;;;;;;5074170;28;20040;-74
2022/01/01 02:11:03;;;;;;;35.50;21.88;;;14.20;83.40;;;;;;5076231;28;20025;-74
2022/01/01 02:16:49;;;;;;;32.13;21.48;;;14.20;83.40;;;;;;4995863;28;20134;-74
2022/01/01 02:19:14;;;;;;;30.30;20.92;;;14.20;83.40;;;;;;5005710;28;20069;-74
2022/01/01 02:21:40;;;;;;;38.17;23.02;;;14.20;83.40;;;;;;4995892;28;20355;-74
2022/01/01 02:24:05;;;;;;;32.63;21.80;;;14.20;83.40;;;;;;5000178;28;20084;-73
2022/01/01 02:26:33;;;;;;;33.80;20.80;;;14.20;83.40;;;;;;4997515;28;20454;-74
2022/01/01 02:29:00;;;;;;;36.00;22.40;;;14.20;83.40;;;;;;5011648;28;20125;-74
2022/01/01 02:31:25;;;;;;;32.75;21.75;;;14.20;83.40;;;;;;5004380;28;20440;-74
2022/01/01 02:33:51;;;;;;;33.85;21.88;;;14.20;83.40;;;;;;4996037;28;20054;-73
2022/01/01 02:36:48;;;;;;;34.30;22.40;;;14.20;83.40;;;;;;4998263;28;20030;-73
2022/01/01 02:39:19;;;;;;;32.40;22.02;;;14.20;83.40;;;;;;4996927;28;20386;-73
2022/01/01 02:41:50;;;;;;;35.78;22.27;;;14.20;83.50;;;;;;5006895;28;20038;-73
2022/01/01 02:44:15;;;;;;;32.40;21.55;;;14.20;83.50;;;;;;5011629;28;20037;-74
2022/01/01 02:46:41;;;;;;;34.78;22.98;;;14.20;83.50;;;;;;5029774;28;20036;-73
2022/01/01 02:49:07;;;;;;;40.92;25.92;;;14.20;83.50;;;;;;5075843;28;20063;-73
2022/01/01 02:51:33;;;;;;;37.83;24.00;;;14.20;83.60;;;;;;5075438;28;20024;-73
2022/01/01 02:53:59;;;;;;;31.88;21.70;;;14.20;83.60;;;;;;5073959;28;20058;-73
2022/01/01 02:56:25;;;;;;;34.10;22.95;;;14.20;83.60;;;;;;5057277;28;20017;-73
2022/01/01 02:58:51;;;;;;;36.55;24.38;;;14.20;83.60;;;;;;5076171;28;20041;-73
2022/01/01 03:01:17;;;;;;;34.42;22.88;;;14.20;83.60;;;;;;5073814;28;20046;-73
2022/01/01 03:03:43;;;;;;;35.78;21.98;;;14.20;83.60;;;;;;5074394;28;20039;-74
2022/01/01 03:06:09;;;;;;;37.25;22.98;;;14.20;83.60;;;;;;5056227;28;20028;-74
2022/01/01 03:08:35;;;;;;;34.50;23.00;;;14.20;83.60;;;;;;5074232;28;20075;-74
2022/01/01 03:11:05;;;;;;;34.70;22.88;;;14.20;83.60;;;;;;5074537;28;20071;-73
2022/01/01 03:13:31;;;;;;;39.47;23.20;;;14.20;83.60;;;;;;5074069;28;20020;-73
2022/01/01 03:15:57;;;;;;;31.67;21.50;;;14.20;83.60;;;;;;5081824;28;20040;-74
2022/01/01 03:18:22;;;;;;;34.08;22.33;;;14.20;83.70;;;;;;5087051;28;20084;-73
2022/01/01 03:20:48;;;;;;;32.88;20.75;;;14.20;83.70;;;;;;5059596;28;20043;-73
2022/01/01 03:23:14;;;;;;;34.78;21.77;;;14.20;83.70;;;;;;5075047;28;20035;-74
2022/01/01 03:25:39;;;;;;;36.78;22.42;;;14.20;83.70;;;;;;5066845;28;20315;-74
2022/01/01 03:28:05;;;;;;;31.30;21.95;;;14.20;83.80;;;;;;5073751;28;20404;-74
2022/01/01 03:30:32;;;;;;;36.53;22.85;;;14.20;83.80;;;;;;5073943;28;20056;-73
2022/01/01 03:32:58;;;;;;;33.67;22.80;;;14.20;83.80;;;;;;5073636;28;20059;-73
2022/01/01 03:35:24;;;;;;;39.03;22.90;;;14.20;83.80;;;;;;5073906;28;20451;-73
2022/01/01 03:37:50;;;;;;;35.47;22.45;;;14.20;83.80;;;;;;5074831;28;20104;-73
2022/01/01 03:40:16;;;;;;;34.17;21.85;;;14.20;83.80;;;;;;5074042;28;20460;-74
2022/01/01 03:42:42;;;;;;;32.30;22.85;;;14.20;83.80;;;;;;5073291;28;20029;-73
2022/01/01 03:45:08;;;;;;;37.10;23.23;;;14.20;83.90;;;;;;5073959;28;20032;-73
2022/01/01 03:47:34;;;;;;;34.38;23.02;;;14.20;83.90;;;;;;5074604;28;20155;-73
2022/01/01 03:50:00;;;;;;;35.75;23.10;;;14.20;83.90;;;;;;5057507;28;20039;-73
2022/01/01 03:52:26;;;;;;;35.00;24.08;;;14.20;83.90;;;;;;5074390;28;20017;-73
2022/01/01 03:54:52;;;;;;;43.00;25.00;;;14.20;83.90;;;;;;5074490;28;20082;-74
2022/01/01 03:57:20;;;;;;;35.80;24.98;;;14.20;84.00;;;;;;5074564;28;20036;-73
2022/01/01 03:59:46;;;;;;;37.60;22.55;;;14.20;84.00;;;;;;5073882;28;20123;-73
2022/01/01 04:02:13;;;;;;;37.17;24.08;;;14.20;84.00;;;;;;5063837;28;20067;-73
2022/01/01 04:04:38;;;;;;;35.28;24.65;;;14.20;84.00;;;;;;5074833;28;20033;-73
2022/01/01 04:07:04;;;;;;;32.60;23.30;;;14.20;84.10;;;;;;5073797;28;20062;-73
2022/01/01 04:09:30;;;;;;;32.92;22.65;;;14.20;84.10;;;;;;5073493;28;20016;-73
2022/01/01 04:11:55;;;;;;;36.55;22.30;;;14.20;84.10;;;;;;5074790;28;20456;-73
2022/01/01 04:14:21;;;;;;;35.53;24.25;;;14.20;84.10;;;;;;5073741;28;20078;-73
2022/01/01 04:16:47;;;;;;;33.20;20.92;;;14.20;84.20;;;;;;5074956;28;20409;-73
2022/01/01 04:19:14;;;;;;;33.13;20.80;;;14.20;84.80;;;;;;5074958;28;20020;-73
2022/01/01 04:21:39;;;;;;;33.45;19.88;;;14.20;84.10;;;;;;5056802;28;20052;-74
2022/01/01 04:24:05;;;;;;;31.55;20.35;;;14.20;84.10;;;;;;5072907;28;20121;-73
2022/01/01 04:26:31;;;;;;;35.92;18.88;;;14.20;84.20;;;;;;5073310;28;20414;-73
2022/01/01 04:28:56;;;;;;;29.95;18.48;;;14.20;84.20;;;;;;5056271;28;20024;-73
2022/01/01 04:31:22;;;;;;;30.30;18.02;;;14.20;84.20;;;;;;5073596;28;20028;-74
2022/01/01 04:33:47;;;;;;;29.20;18.17;;;14.20;84.20;;;;;;5073120;28;20082;-73
2022/01/01 04:36:13;;;;;;;26.45;15.95;;;14.20;84.20;;;;;;5056258;28;20111;-74
2022/01/01 04:38:41;;;;;;;28.95;16.95;;;14.20;84.30;;;;;;5072827;28;20028;-74
2022/01/01 04:41:12;;;;;;;25.25;14.60;;;14.20;84.30;;;;;;5056973;28;20365;-73
2022/01/01 04:43:40;;;;;;;26.05;14.63;;;14.20;84.30;;;;;;5073079;28;20040;-73
2022/01/01 04:46:06;;;;;;;27.52;15.02;;;14.20;84.30;;;;;;5073791;28;20033;-73
2022/01/01 04:48:36;;;;;;;26.33;15.35;;;14.20;84.30;;;;;;5073128;28;20029;-73
2022/01/01 04:51:06;;;;;;;28.67;15.98;;;14.20;84.40;;;;;;5074139;28;20495;-73
2022/01/01 04:53:33;;;;;;;28.67;16.52;;;14.20;84.40;;;;;;5073116;28;21755;-73
2022/01/01 04:56:02;;;;;;;29.40;15.52;;;14.20;84.40;;;;;;5072966;28;20021;-73
2022/01/01 04:58:28;;;;;;;25.70;14.18;;;14.20;84.50;;;;;;5073951;28;20465;-73
2022/01/01 05:00:53;;;;;;;30.20;15.82;;;14.20;84.50;;;;;;5074215;28;20078;-73
2022/01/01 05:03:19;;;;;;;24.85;15.10;;;14.20;84.50;;;;;;5073325;28;20097;-73
2022/01/01 05:05:44;;;;;;;25.73;13.98;;;14.20;84.50;;;;;;5072628;28;20060;-73
2022/01/01 05:08:10;;;;;;;23.38;14.25;;;14.20;84.50;;;;;;5055433;28;20021;-74
2022/01/01 05:10:36;;;;;;;22.70;13.95;;;14.20;84.50;;;;;;5054695;28;20093;-73
2022/01/01 05:13:02;;;;;;;23.73;13.00;;;14.20;84.60;;;;;;5071088;28;20086;-73
2022/01/01 05:15:27;;;;;;;21.67;12.73;;;14.20;84.60;;;;;;5071166;28;20107;-74
2022/01/01 05:17:53;;;;;;;22.92;13.32;;;14.20;84.60;;;;;;5055147;28;20088;-73
2022/01/01 05:20:19;;;;;;;21.77;13.20;;;14.20;84.60;;;;;;5054296;28;20337;-73
2022/01/01 05:22:45;;;;;;;25.48;14.18;;;14.20;84.60;;;;;;5055172;28;20035;-73
2022/01/01 05:25:10;;;;;;;23.95;12.90;;;14.20;84.60;;;;;;5051761;28;20111;-73
2022/01/01 05:27:37;;;;;;;26.30;13.40;;;14.20;84.70;;;;;;5035208;28;20425;-73
2022/01/01 05:30:07;;;;;;;22.73;13.00;;;14.20;84.70;;;;;;5068733;28;20052;-74
2022/01/01 05:32:32;;;;;;;19.58;13.15;;;14.20;84.70;;;;;;5064988;28;20052;-74
2022/01/01 05:34:58;;;;;;;19.45;12.10;;;14.20;84.60;;;;;;5068757;28;20028;-73
2022/01/01 05:37:23;;;;;;;20.52;11.73;;;14.30;84.70;;;;;;5052831;28;20680;-73
2022/01/01 05:39:49;;;;;;;22.08;11.57;;;14.20;84.60;;;;;;5052244;28;20020;-73
2022/01/01 05:42:14;;;;;;;19.73;10.82;;;14.20;84.70;;;;;;5054624;28;20047;-74
2022/01/01 05:44:41;;;;;;;17.63;9.07;;;14.30;84.70;;;;;;5060044;28;20059;-73
2022/01/01 05:47:07;;;;;;;18.02;10.27;;;14.20;84.70;;;;;;5041045;28;20092;-73
2022/01/01 05:49:32;;;;;;;13.32;8.43;;;14.20;84.70;;;;;;5070058;28;20052;-74
2022/01/01 05:51:58;;;;;;;15.02;8.93;;;14.20;84.70;;;;;;5078036;28;20359;-73
2022/01/01 05:54:23;;;;;;;15.93;8.88;;;14.30;84.80;;;;;;5076200;28;20021;-73
2022/01/01 05:56:49;;;;;;;18.10;8.85;;;14.20;84.70;;;;;;5075914;28;20103;-73
2022/01/01 05:59:15;;;;;;;15.85;9.15;;;14.20;84.60;;;;;;5075490;28;20384;-73
2022/01/01 06:01:41;;;;;;;19.70;9.35;;;14.20;84.70;;;;;;5076501;28;20046;-73
2022/01/01 06:04:06;;;;;;;15.00;7.70;;;14.20;84.60;;;;;;5059303;28;20048;-74
2022/01/01 06:06:32;;;;;;;16.75;7.82;;;14.20;84.60;;;;;;5075936;28;20029;-73
2022/01/01 06:08:58;;;;;;;15.85;8.35;;;14.20;84.60;;;;;;5075389;28;20071;-74
2022/01/01 06:11:23;;;;;;;20.35;9.43;;;14.20;84.60;;;;;;5077042;28;20350;-73
2022/01/01 06:13:49;;;;;;;20.25;8.80;;;14.20;84.60;;;;;;5076152;28;20027;-73
2022/01/01 06:16:14;;;;;;;13.40;7.70;;;14.20;84.60;;;;;;5076032;28;20024;-73
2022/01/01 06:18:40;;;;;;;14.80;8.05;;;14.30;84.60;;;;;;5076853;28;20136;-73
2022/01/01 06:21:05;;;;;;;16.02;8.25;;;14.20;84.60;;;;;;5076325;28;20036;-73
2022/01/01 06:23:33;;;;;;;14.32;8.18;;;14.20;84.60;;;;;;5083296;28;20368;-73
2022/01/01 06:25:58;;;;;;;16.42;7.60;;;14.20;84.60;;;;;;5076453;28;20165;-74
2022/01/01 06:28:24;;;;;;;17.30;9.02;;;14.20;84.50;;;;;;5075243;28;20115;-74
2022/01/01 06:30:50;;;;;;;17.45;8.55;;;14.20;84.50;;;;;;5075799;28;20029;-74
2022/01/01 06:33:17;;;;;;;15.32;8.52;;;14.20;84.50;;;;;;5076395;28;20054;-74
2022/01/01 06:35:44;;;;;;;17.25;8.43;;;14.30;84.50;;;;;;5076173;28;20025;-74
2022/01/01 06:38:11;;;;;;;15.68;8.80;;;14.20;84.40;;;;;;5074458;28;20111;-74
2022/01/01 06:40:39;;;;;;;16.88;9.25;;;14.20;84.40;;;;;;5076314;28;20103;-74
2022/01/01 06:43:06;;;;;;;15.55;8.30;;;14.30;84.50;;;;;;5075754;28;20020;-74
2022/01/01 06:45:32;;;;;;;17.05;8.77;;;14.30;84.40;;;;;;5074969;28;20028;-73
2022/01/01 06:47:57;;;;;;;22.00;9.05;;;14.30;84.40;;;;;;5074199;28;20033;-74
2022/01/01 06:50:23;;;;;;;20.98;8.35;;;14.30;84.30;;;;;;5075645;28;20028;-74
2022/01/01 06:52:49;;;;;;;14.38;8.77;;;14.20;84.20;;;;;;5074272;28;20421;-73
2022/01/01 06:55:15;;;;;;;16.75;8.52;;;14.20;84.20;;;;;;5074401;28;20504;-74
2022/01/01 06:57:42;;;;;;;14.18;8.77;;;14.20;84.20;;;;;;5073813;28;20112;-73
2022/01/01 07:00:09;;;;;;;15.50;8.75;;;14.20;84.20;;;;;;5074431;28;20093;-72
2022/01/01 07:02:38;;;;;;;14.93;8.32;;;14.20;84.20;;;;;;5074682;28;20515;-73
2022/01/01 07:05:04;;;;;;;13.65;8.10;;;14.10;84.10;;;;;;5073383;28;20029;-72
2022/01/01 07:07:30;;;;;;;15.43;7.53;;;14.10;84.20;;;;;;5074080;28;20375;-73
2022/01/01 07:09:56;;;;;;;12.57;6.88;;;14.10;84.20;;;;;;5073705;28;20456;-72
2022/01/01 07:12:23;;;;;;;16.13;7.68;;;14.10;84.20;;;;;;5075723;28;20035;-73
2022/01/01 07:14:48;;;;;;;13.48;7.20;;;14.10;84.20;;;;;;5073451;28;20507;-73
2022/01/01 07:17:14;;;;;;;14.07;6.63;;;14.00;84.10;;;;;;5075048;28;20025;-72
2022/01/01 07:19:39;;;;;;;13.38;6.60;;;14.00;84.10;;;;;;5074967;28;20051;-72
2022/01/01 07:22:05;;;;;;;15.10;6.60;;;14.00;84.10;;;;;;5075161;28;20036;-73
2022/01/01 07:24:31;;;;;;;16.48;7.47;;;14.00;84.10;;;;;;5074737;28;20028;-73
2022/01/01 07:26:56;;;;;;;13.10;6.22;;;13.90;84.10;;;;;;5073314;28;20028;-73
2022/01/01 07:29:22;;;;;;;10.30;5.20;;;13.90;84.10;;;;;;5074364;28;20364;-73
2022/01/01 07:31:48;;;;;;;17.08;6.82;;;13.90;84.10;;;;;;5057107;28;20036;-73
2022/01/01 07:34:14;;;;;;;12.98;6.43;;;13.90;84.10;;;;;;5077222;28;20028;-73
2022/01/01 07:36:39;;;;;;;11.68;5.10;;;13.90;84.10;;;;;;5080235;28;20054;-73
2022/01/01 07:39:05;;;;;;;14.00;6.53;;;13.90;84.10;;;;;;5058972;28;20039;-73
2022/01/01 07:41:30;;;;;;;12.80;5.45;;;13.90;84.00;;;;;;5056794;28;20399;-72
2022/01/01 07:43:56;;;;;;;10.95;5.22;;;13.90;83.90;;;;;;5073722;28;20064;-72
2022/01/01 07:46:22;;;;;;;12.20;5.30;;;13.90;83.90;;;;;;5074347;28;20025;-72
2022/01/01 07:48:47;;;;;;;12.70;5.93;;;14.00;83.90;;;;;;5073444;28;20028;-72
2022/01/01 07:51:13;;;;;;;12.10;5.70;;;14.00;83.80;;;;;;5073257;28;20027;-73
2022/01/01 07:53:38;;;;;;;16.30;5.68;;;14.00;83.80;;;;;;5073596;28;20025;-74
2022/01/01 07:56:04;;;;;;;13.35;5.60;;;14.00;83.80;;;;;;5073330;28;20346;-75
2022/01/01 07:58:31;;;;;;;9.68;4.72;;;14.00;83.60;;;;;;5073432;28;20039;-73
2022/01/01 08:00:57;;;;;;;14.18;5.55;;;14.00;83.60;;;;;;5075009;28;20036;-73
2022/01/01 08:03:23;;;;;;;11.95;4.78;;;14.00;83.50;;;;;;5073619;28;20024;-73
2022/01/01 08:05:48;;;;;;;13.30;5.47;;;14.00;83.50;;;;;;5056958;28;20035;-73
2022/01/01 08:08:15;;;;;;;10.65;5.07;;;14.00;83.40;;;;;;5073675;28;20372;-73
2022/01/01 08:10:41;;;;;;;9.18;4.72;;;14.00;83.30;;;;;;5069136;28;20365;-73
2022/01/01 08:13:08;;;;;;;9.82;4.97;;;14.00;83.20;;;;;;5056788;28;20116;-74
2022/01/01 08:15:34;;;;;;;11.68;4.95;;;14.00;83.10;;;;;;5057377;28;20036;-73
2022/01/01 08:18:00;;;;;;;10.45;4.60;;;14.00;83.00;;;;;;5074921;28;20043;-73
2022/01/01 08:20:25;;;;;;;13.07;4.55;;;14.00;83.00;;;;;;5074090;28;20353;-73
2022/01/01 08:22:51;;;;;;;11.90;5.10;;;14.00;82.90;;;;;;5073460;28;20415;-73
2022/01/01 08:25:17;;;;;;;10.45;4.90;;;14.10;82.90;;;;;;5056367;28;20071;-74
2022/01/01 08:27:43;;;;;;;11.60;5.43;;;14.10;82.80;;;;;;5074300;28;20167;-74
2022/01/01 08:30:14;;;;;;;11.38;4.65;;;14.10;82.70;;;;;;5075132;28;20029;-74
2022/01/01 08:32:47;;;;;;;11.02;4.75;;;14.10;82.70;;;;;;5056657;28;20051;-73
2022/01/01 08:35:13;;;;;;;10.77;4.93;;;14.10;82.60;;;;;;5053587;28;20033;-74
2022/01/01 08:37:39;;;;;;;11.65;4.78;;;14.10;82.50;;;;;;5054201;28;20029;-73
2022/01/01 08:40:05;;;;;;;11.20;4.50;;;14.20;82.40;;;;;;5072614;28;20093;-71
2022/01/01 08:42:31;;;;;;;13.23;4.97;;;14.20;82.40;;;;;;5073867;28;20051;-73
2022/01/01 08:44:56;;;;;;;10.23;4.75;;;14.20;82.30;;;;;;5077647;28;20025;-73
2022/01/01 08:47:25;;;;;;;12.63;4.88;;;14.20;82.10;;;;;;5060946;28;20040;-73
2022/01/01 08:49:55;;;;;;;8.18;4.28;;;14.30;82.00;;;;;;5061590;28;20036;-71
2022/01/01 08:52:24;;;;;;;9.20;3.83;;;14.40;81.90;;;;;;5068835;28;20025;-71
2022/01/01 08:54:56;;;;;;;11.05;4.38;;;14.40;81.70;;;;;;5053540;28;20035;-70
2022/01/01 08:57:26;;;;;;;11.52;4.63;;;14.40;81.60;;;;;;5053629;28;20033;-72
2022/01/01 08:59:53;;;;;;;10.90;4.53;;;14.50;81.50;;;;;;5059469;28;20402;-71
2022/01/01 09:02:19;;;;;;;12.13;3.83;;;14.50;81.50;;;;;;5056290;28;20114;-71
2022/01/01 09:04:45;;;;;;;10.73;4.05;;;14.50;81.30;;;;;;5053081;28;20044;-70
2022/01/01 09:07:12;;;;;;;11.55;4.45;;;14.50;81.30;;;;;;5067101;28;20025;-75
2022/01/01 09:09:39;;;;;;;11.75;4.47;;;14.50;81.30;;;;;;5074034;28;20111;-72
2022/01/01 09:12:06;;;;;;;7.78;3.60;;;14.50;81.30;;;;;;5072821;28;20024;-72
2022/01/01 09:14:32;;;;;;;11.35;4.72;;;14.50;81.20;;;;;;5067916;28;20100;-73
2022/01/01 09:16:58;;;;;;;8.38;3.85;;;14.50;81.20;;;;;;5064878;28;20036;-73
2022/01/01 09:19:23;;;;;;;8.98;4.35;;;14.50;81.10;;;;;;5071173;28;20444;-73
2022/01/01 09:21:49;;;;;;;13.32;4.75;;;14.60;81.20;;;;;;5076088;28;20096;-74
2022/01/01 09:24:15;;;;;;;11.57;4.40;;;14.60;81.10;;;;;;5076333;28;20024;-75
2022/01/01 09:26:40;;;;;;;12.55;4.32;;;14.60;81.00;;;;;;5077227;28;20491;-74
2022/01/01 09:29:07;;;;;;;11.13;3.85;;;14.60;81.00;;;;;;5076259;28;20064;-74
2022/01/01 09:31:32;;;;;;;8.70;4.05;;;14.60;81.00;;;;;;5076548;28;20025;-75
2022/01/01 09:33:58;;;;;;;10.70;4.18;;;14.60;80.90;;;;;;5076286;28;20517;-70
2022/01/01 09:36:24;;;;;;;10.80;3.90;;;14.60;80.90;;;;;;5075488;28;20029;-71
2022/01/01 09:38:50;;;;;;;10.88;3.83;;;14.60;80.90;;;;;;5075237;28;20036;-72
2022/01/01 09:41:16;;;;;;;9.80;3.80;;;14.60;80.90;;;;;;5092135;28;20111;-72
2022/01/01 09:43:42;;;;;;;9.73;3.80;;;14.60;80.80;;;;;;5076169;28;20043;-72
2022/01/01 09:46:11;;;;;;;8.70;3.30;;;14.60;80.80;;;;;;5074958;28;20032;-72
2022/01/01 09:48:38;;;;;;;9.27;4.68;;;14.70;80.80;;;;;;5075458;28;20036;-72
2022/01/01 09:51:04;;;;;;;9.95;3.80;;;14.70;80.80;;;;;;5074948;28;20135;-72
2022/01/01 09:53:31;;;;;;;10.32;3.88;;;14.70;80.70;;;;;;5075589;28;20052;-72
2022/01/01 09:55:58;;;;;;;9.85;4.15;;;14.70;80.70;;;;;;5075238;28;20028;-74
2022/01/01 09:58:26;;;;;;;11.05;3.90;;;14.70;80.60;;;;;;5076036;28;20438;-77
2022/01/01 10:00:52;;;;;;;11.68;4.13;;;14.70;80.50;;;;;;5075729;28;20086;-74
2022/01/01 10:03:30;;;;;;;8.68;4.15;;;14.80;80.50;;;;;;5075514;28;20056;-73
2022/01/01 10:06:16;;;;;;;10.45;4.50;;;14.80;80.40;;;;;;5088015;28;20514;-73
2022/01/01 10:08:46;;;;;;;9.60;4.30;;;14.80;81.00;;;;;;5058894;28;20059;-73
2022/01/01 10:11:16;;;;;;;10.57;3.88;;;14.80;80.30;;;;;;5076493;28;20028;-73
2022/01/01 10:13:41;;;;;;;9.65;3.80;;;14.80;80.20;;;;;;5075482;28;20036;-72
2022/01/01 10:16:09;;;;;;;9.25;3.85;;;14.80;80.20;;;;;;5076029;28;20037;-74
2022/01/01 10:18:37;;;;;;;10.35;3.85;;;14.80;80.10;;;;;;5058830;28;20093;-77
2022/01/01 10:21:10;;;;;;;9.38;3.60;;;14.80;80.00;;;;;;5075921;28;20457;-73
2022/01/01 10:23:41;;;;;;;10.32;3.97;;;14.80;80.00;;;;;;5076611;28;20037;-74
2022/01/01 10:29:20;;;;;;;9.60;3.90;;;15.00;79.80;;;;;;5075888;28;20472;-72
2022/01/01 10:32:00;;;;;;;9.63;3.75;;;15.00;79.80;;;;;;5075882;28;20082;-72
2022/01/01 10:34:28;;;;;;;11.60;4.30;;;15.00;79.70;;;;;;5075811;28;20341;-72
2022/01/01 10:36:55;;;;;;;10.90;4.07;;;15.10;79.50;;;;;;5079122;28;20029;-72
2022/01/01 10:39:21;;;;;;;11.10;4.70;;;15.20;79.40;;;;;;5062442;28;20044;-73
2022/01/01 10:41:51;;;;;;;9.40;4.40;;;15.20;79.30;;;;;;5056758;28;20191;-73
2022/01/01 10:44:31;;;;;;;8.68;4.05;;;15.20;79.20;;;;;;5074751;28;20396;-74
2022/01/01 10:46:59;;;;;;;8.65;4.22;;;15.20;79.10;;;;;;5075934;28;20089;-73
2022/01/01 10:49:37;;;;;;;12.77;5.20;;;15.20;79.10;;;;;;5074676;28;20402;-73
2022/01/01 10:52:32;;;;;;;12.45;4.75;;;15.30;78.90;;;;;;5075021;28;20036;-72
2022/01/01 10:55:01;;;;;;;10.77;4.40;;;15.30;78.70;;;;;;5077331;28;20402;-73
2022/01/01 10:57:33;;;;;;;9.63;3.83;;;15.30;78.70;;;;;;5075144;28;20107;-73
2022/01/01 11:00:20;;;;;;;13.70;4.88;;;15.30;78.70;;;;;;5074926;28;20039;-73
2022/01/01 11:02:52;;;;;;;9.02;4.10;;;15.30;78.60;;;;;;5084079;28;20033;-72
2022/01/01 11:05:32;;;;;;;9.60;4.80;;;15.30;78.70;;;;;;5058248;28;20033;-72
2022/01/01 11:07:59;;;;;;;9.07;4.18;;;15.30;78.70;;;;;;5063949;28;20032;-71
2022/01/01 11:10:25;;;;;;;8.02;4.50;;;15.30;78.70;;;;;;5075171;28;20066;-72
2022/01/01 11:12:52;;;;;;;11.13;4.53;;;15.30;78.70;;;;;;5075525;28;20024;-73
2022/01/01 11:15:19;;;;;;;8.73;4.28;;;15.40;78.70;;;;;;5075268;28;20048;-72
2022/01/01 11:17:46;;;;;;;9.23;4.07;;;15.40;78.70;;;;;;5056580;28;20122;-73
2022/01/01 11:20:13;;;;;;;8.73;3.60;;;15.40;78.70;;;;;;5073721;28;20063;-73
2022/01/01 11:22:39;;;;;;;10.05;4.28;;;15.40;78.60;;;;;;5075585;28;20033;-74
2022/01/01 11:25:05;;;;;;;9.93;4.18;;;15.40;78.60;;;;;;5057411;28;20032;-75
2022/01/01 11:27:31;;;;;;;9.68;4.38;;;15.40;78.60;;;;;;5057803;28;20032;-75
2022/01/01 11:29:59;;;;;;;10.25;4.22;;;15.40;78.70;;;;;;5075668;28;20457;-75
2022/01/01 11:32:57;;;;;;;8.68;3.92;;;15.40;78.60;;;;;;5074420;28;20037;-75
2022/01/01 11:35:44;;;;;;;8.45;4.18;;;15.40;78.60;;;;;;5075923;28;20064;-75
2022/01/01 11:38:15;;;;;;;9.55;4.75;;;15.30;78.60;;;;;;5075333;28;20472;-76
2022/01/01 11:40:56;;;;;;;8.15;4.32;;;15.30;78.70;;;;;;5074027;28;20353;-75
2022/01/01 11:43:46;;;;;;;9.27;4.10;;;15.30;78.60;;;;;;5075054;28;20032;-75
2022/01/01 11:46:26;;;;;;;10.48;4.35;;;15.30;78.70;;;;;;5075611;28;20093;-75
2022/01/01 11:48:59;;;;;;;11.23;4.63;;;15.30;78.70;;;;;;5075494;28;20098;-74
2022/01/01 11:51:29;;;;;;;9.07;4.35;;;15.30;78.70;;;;;;5074216;28;20024;-74
2022/01/01 11:54:06;;;;;;;9.75;4.22;;;15.30;78.70;;;;;;5075011;28;20035;-74
2022/01/01 11:56:50;;;;;;;8.38;4.22;;;15.30;78.70;;;;;;5074272;28;20055;-74
2022/01/01 11:59:21;;;;;;;9.80;4.32;;;15.40;78.70;;;;;;5057908;28;20381;-74
2022/01/01 12:01:51;;;;;;;8.40;3.85;;;15.30;78.70;;;;;;5058113;28;20022;-74
2022/01/01 12:04:37;;;;;;;9.50;4.55;;;15.30;78.70;;;;;;5075867;28;20033;-75
2022/01/01 12:07:18;;;;;;;10.15;3.97;;;15.40;78.70;;;;;;5074121;28;20066;-75
2022/01/01 12:10:11;;;;;;;10.60;4.77;;;15.40;78.70;;;;;;5074147;28;20028;-75
2022/01/01 12:12:50;;;;;;;10.55;3.65;;;15.40;78.70;;;;;;5074430;28;20282;-74
2022/01/01 12:15:27;;;;;;;8.90;4.13;;;15.40;78.80;;;;;;5073803;28;20417;-74
2022/01/01 12:17:55;;;;;;;9.35;4.13;;;15.40;78.70;;;;;;5075131;28;20467;-75
2022/01/01 12:20:26;;;;;;;11.40;4.40;;;15.40;78.70;;;;;;5074221;28;20036;-75
2022/01/01 12:22:53;;;;;;;8.27;3.78;;;15.40;78.70;;;;;;5074447;28;20033;-74
2022/01/01 12:25:24;;;;;;;7.97;4.10;;;15.40;78.70;;;;;;5073767;28;20108;-75
2022/01/01 12:27:51;;;;;;;10.02;3.83;;;15.40;78.70;;;;;;5073960;28;20032;-74
2022/01/01 12:30:45;;;;;;;8.95;4.13;;;15.40;78.70;;;;;;5057396;28;20031;-74
2022/01/01 12:33:25;;;;;;;7.35;3.42;;;15.40;78.60;;;;;;5070420;28;20036;-75
2022/01/01 12:35:56;;;;;;;8.40;4.00;;;15.40;78.70;;;;;;5073472;28;20029;-75
2022/01/01 12:38:29;;;;;;;9.00;4.18;;;15.50;78.70;;;;;;5057297;28;20456;-74
2022/01/01 12:40:59;;;;;;;8.30;3.58;;;15.50;78.50;;;;;;5074188;28;20127;-74
2022/01/01 12:43:27;;;;;;;7.32;3.50;;;15.60;78.50;;;;;;5073993;28;20457;-74